createdAt,value
2023-05-10T00:00:21.984Z,500.00
2023-05-10T00:01:22.007Z,500.00
2023-05-10T00:02:22.075Z,500.00
2023-05-10T00:03:22.158Z,431.00
2023-05-10T00:04:22.134Z,404.00
2023-05-10T00:05:22.175Z,400.00
2023-05-10T00:06:22.212Z,400.00
2023-05-10T00:07:22.265Z,400.00
2023-05-10T00:08:22.304Z,421.00
2023-05-10T00:09:22.351Z,444.00
2023-05-10T00:10:22.397Z,482.00
2023-05-10T00:11:23.194Z,500.00
2023-05-10T00:12:22.534Z,500.00
2023-05-10T00:13:22.604Z,500.00
2023-05-10T00:14:22.647Z,500.00
2023-05-10T00:15:22.750Z,500.00
2023-05-10T00:16:22.823Z,498.00
2023-05-10T00:17:22.765Z,501.00
2023-05-10T00:18:22.845Z,500.00
2023-05-10T00:19:22.877Z,503.00
2023-05-10T00:20:22.927Z,500.00
2023-05-10T00:21:22.979Z,497.00
2023-05-10T00:22:23.032Z,505.00
2023-05-10T00:23:23.079Z,500.00
2023-05-10T00:24:23.132Z,502.00
2023-05-10T00:25:23.206Z,503.00
2023-05-10T00:26:23.253Z,502.00
2023-05-10T00:27:23.323Z,503.00
2023-05-10T00:28:23.390Z,503.00
2023-05-10T00:29:23.411Z,503.00
2023-05-10T00:30:23.476Z,504.00
2023-05-10T00:31:23.544Z,506.00
2023-05-10T00:32:23.650Z,505.00
2023-05-10T00:33:23.611Z,501.00
2023-05-10T00:34:23.666Z,503.00
2023-05-10T00:35:23.735Z,506.00
2023-05-10T00:36:23.758Z,502.00
2023-05-10T00:37:23.822Z,506.00
2023-05-10T00:38:23.847Z,500.00
2023-05-10T00:39:23.890Z,509.00
2023-05-10T00:40:23.932Z,508.00
2023-05-10T00:41:23.963Z,508.00
2023-05-10T00:42:24.017Z,504.00
2023-05-10T00:43:24.060Z,500.00
2023-05-10T00:44:24.206Z,503.00
2023-05-10T00:45:24.179Z,500.00
2023-05-10T00:46:24.273Z,504.00
2023-05-10T00:47:24.292Z,506.00
2023-05-10T00:48:24.331Z,506.00
2023-05-10T00:49:24.385Z,504.00
2023-05-10T00:50:24.452Z,503.00
2023-05-10T00:51:24.498Z,506.00
2023-05-10T00:52:24.491Z,505.00
2023-05-10T00:53:24.555Z,508.00
2023-05-10T00:54:24.585Z,508.00
2023-05-10T00:55:24.617Z,504.00
2023-05-10T00:56:24.680Z,501.00
2023-05-10T00:57:24.686Z,505.00
2023-05-10T00:58:24.746Z,505.00
2023-05-10T00:59:24.775Z,504.00
2023-05-10T01:00:24.819Z,503.00
2023-05-10T01:01:24.860Z,503.00
2023-05-10T01:02:24.961Z,508.00
2023-05-10T01:03:24.913Z,500.00
2023-05-10T01:04:24.932Z,503.00
2023-05-10T01:05:24.952Z,501.00
2023-05-10T01:06:24.973Z,513.00
2023-05-10T01:07:24.992Z,509.00
2023-05-10T01:08:25.026Z,501.00
2023-05-10T01:09:25.061Z,510.00
2023-05-10T01:10:25.088Z,513.00
2023-05-10T01:11:25.129Z,510.00
2023-05-10T01:12:25.292Z,509.00
2023-05-10T01:13:25.288Z,508.00
2023-05-10T01:14:25.253Z,512.00
2023-05-10T01:15:25.293Z,509.00
2023-05-10T01:16:25.543Z,508.00
2023-05-10T01:17:25.418Z,509.00
2023-05-10T01:18:25.456Z,507.00
2023-05-10T01:19:25.510Z,511.00
2023-05-10T01:20:25.547Z,510.00
2023-05-10T01:21:25.565Z,513.00
2023-05-10T01:22:25.598Z,505.00
2023-05-10T01:23:25.641Z,511.00
2023-05-10T01:24:25.671Z,515.00
2023-05-10T01:25:25.712Z,510.00
2023-05-10T01:26:25.766Z,514.00
2023-05-10T01:27:25.814Z,510.00
2023-05-10T01:28:25.856Z,510.00
2023-05-10T01:29:25.914Z,509.00
2023-05-10T01:30:26.147Z,510.00
2023-05-10T01:31:26.016Z,515.00
2023-05-10T01:32:26.108Z,512.00
2023-05-10T01:33:26.053Z,511.00
2023-05-10T01:34:26.086Z,512.00
2023-05-10T01:35:26.139Z,513.00
2023-05-10T01:36:26.155Z,513.00
2023-05-10T01:37:26.187Z,510.00
2023-05-10T01:38:26.210Z,510.00
2023-05-10T01:39:26.233Z,516.00
2023-05-10T01:40:26.292Z,512.00
2023-05-10T01:41:26.294Z,516.00
2023-05-10T01:42:26.311Z,512.00
2023-05-10T01:43:26.332Z,511.00
2023-05-10T01:44:26.349Z,509.00
2023-05-10T01:45:26.371Z,512.00
2023-05-10T01:46:26.423Z,516.00
2023-05-10T01:47:26.442Z,514.00
2023-05-10T01:48:26.481Z,510.00
2023-05-10T01:49:26.484Z,511.00
2023-05-10T01:50:26.502Z,514.00
2023-05-10T01:51:26.578Z,509.00
2023-05-10T01:52:26.559Z,514.00
2023-05-10T01:53:26.605Z,510.00
2023-05-10T01:54:26.616Z,511.00
2023-05-10T01:55:26.654Z,511.00
2023-05-10T01:56:26.677Z,509.00
2023-05-10T01:57:26.697Z,515.00
2023-05-10T01:58:26.701Z,507.00
2023-05-10T01:59:26.726Z,511.00
2023-05-10T02:00:26.754Z,511.00
2023-05-10T02:01:26.793Z,510.00
2023-05-10T02:02:26.920Z,511.00
2023-05-10T02:03:26.883Z,508.00
2023-05-10T02:04:26.928Z,516.00
2023-05-10T02:05:26.939Z,511.00
2023-05-10T02:06:26.973Z,510.00
2023-05-10T02:07:27.006Z,515.00
2023-05-10T02:08:27.019Z,514.00
2023-05-10T02:09:27.047Z,505.00
2023-05-10T02:10:27.076Z,512.00
2023-05-10T02:11:27.087Z,509.00
2023-05-10T02:12:27.118Z,508.00
2023-05-10T02:13:27.302Z,504.00
2023-05-10T02:14:27.156Z,510.00
2023-05-10T02:15:27.177Z,510.00
2023-05-10T02:16:27.236Z,513.00
2023-05-10T02:17:27.248Z,505.00
2023-05-10T02:18:27.253Z,508.00
2023-05-10T02:19:27.256Z,510.00
2023-05-10T02:20:27.293Z,508.00
2023-05-10T02:21:27.294Z,509.00
2023-05-10T02:22:27.324Z,509.00
2023-05-10T02:23:27.330Z,509.00
2023-05-10T02:24:27.355Z,514.00
2023-05-10T02:25:27.358Z,510.00
2023-05-10T02:26:27.362Z,509.00
2023-05-10T02:27:27.383Z,506.00
2023-05-10T02:28:27.392Z,507.00
2023-05-10T02:29:27.395Z,511.00
2023-05-10T02:30:27.414Z,508.00
2023-05-10T02:31:27.482Z,509.00
2023-05-10T02:32:27.426Z,507.00
2023-05-10T02:33:27.417Z,511.00
2023-05-10T02:34:27.426Z,511.00
2023-05-10T02:35:27.420Z,511.00
2023-05-10T02:36:27.442Z,512.00
2023-05-10T02:37:27.430Z,507.00
2023-05-10T02:38:27.433Z,506.00
2023-05-10T02:39:27.464Z,508.00
2023-05-10T02:40:28.948Z,510.00
2023-05-10T02:41:27.534Z,509.00
2023-05-10T02:42:27.535Z,506.00
2023-05-10T02:43:27.552Z,512.00
2023-05-10T02:44:27.551Z,513.00
2023-05-10T02:45:27.564Z,512.00
2023-05-10T02:46:27.652Z,508.00
2023-05-10T02:47:27.603Z,506.00
2023-05-10T02:48:27.607Z,512.00
2023-05-10T02:49:27.633Z,507.00
2023-05-10T02:50:27.628Z,512.00
2023-05-10T02:51:27.653Z,508.00
2023-05-10T02:52:27.761Z,512.00
2023-05-10T02:53:27.681Z,514.00
2023-05-10T02:54:27.685Z,509.00
2023-05-10T02:55:27.680Z,511.00
2023-05-10T02:56:27.701Z,508.00
2023-05-10T02:57:27.700Z,506.00
2023-05-10T02:58:27.705Z,509.00
2023-05-10T02:59:27.700Z,506.00
2023-05-10T03:00:27.704Z,508.00
2023-05-10T03:01:27.721Z,507.00
2023-05-10T03:02:27.720Z,508.00
2023-05-10T03:03:27.706Z,509.00
2023-05-10T03:04:27.731Z,507.00
2023-05-10T03:05:27.709Z,507.00
2023-05-10T03:06:27.716Z,514.00
2023-05-10T03:07:27.728Z,509.00
2023-05-10T03:08:27.758Z,507.00
2023-05-10T03:09:27.725Z,508.00
2023-05-10T03:10:27.719Z,508.00
2023-05-10T03:11:27.714Z,512.00
2023-05-10T03:12:27.733Z,511.00
2023-05-10T03:13:27.882Z,512.00
2023-05-10T03:14:27.748Z,509.00
2023-05-10T03:15:27.754Z,509.00
2023-05-10T03:16:27.885Z,514.00
2023-05-10T03:17:27.854Z,510.00
2023-05-10T03:18:27.808Z,511.00
2023-05-10T03:19:27.814Z,507.00
2023-05-10T03:20:27.820Z,510.00
2023-05-10T03:21:27.824Z,507.00
2023-05-10T03:22:27.840Z,508.00
2023-05-10T03:23:27.830Z,509.00
2023-05-10T03:24:27.871Z,512.00
2023-05-10T03:25:27.849Z,505.00
2023-05-10T03:26:27.884Z,508.00
2023-05-10T03:27:27.856Z,507.00
2023-05-10T03:28:27.862Z,508.00
2023-05-10T03:29:27.862Z,510.00
2023-05-10T03:30:27.865Z,506.00
2023-05-10T03:31:27.968Z,509.00
2023-05-10T03:32:27.903Z,502.00
2023-05-10T03:33:27.882Z,506.00
2023-05-10T03:34:27.880Z,507.00
2023-05-10T03:35:27.895Z,505.00
2023-05-10T03:36:27.893Z,505.00
2023-05-10T03:37:27.905Z,511.00
2023-05-10T03:38:30.251Z,506.00
2023-05-10T03:39:27.897Z,513.00
2023-05-10T03:40:27.920Z,515.00
2023-05-10T03:41:27.877Z,510.00
2023-05-10T03:42:27.870Z,512.00
2023-05-10T03:43:27.857Z,508.00
2023-05-10T03:44:27.859Z,509.00
2023-05-10T03:45:27.852Z,508.00
2023-05-10T03:46:27.882Z,504.00
2023-05-10T03:47:27.859Z,509.00
2023-05-10T03:48:27.825Z,509.00
2023-05-10T03:49:27.828Z,504.00
2023-05-10T03:50:27.825Z,512.00
2023-05-10T03:51:27.792Z,514.00
2023-05-10T03:52:27.806Z,503.00
2023-05-10T03:53:27.805Z,512.00
2023-05-10T03:54:27.776Z,509.00
2023-05-10T03:55:27.794Z,506.00
2023-05-10T03:56:27.832Z,510.00
2023-05-10T03:57:27.753Z,505.00
2023-05-10T03:58:27.751Z,507.00
2023-05-10T03:59:27.750Z,505.00
2023-05-10T04:00:27.738Z,506.00
2023-05-10T04:01:27.730Z,512.00
2023-05-10T04:02:27.861Z,507.00
2023-05-10T04:03:27.822Z,509.00
2023-05-10T04:04:27.707Z,505.00
2023-05-10T04:05:27.725Z,509.00
2023-05-10T04:06:27.726Z,506.00
2023-05-10T04:07:27.692Z,507.00
2023-05-10T04:08:27.675Z,505.00
2023-05-10T04:09:27.670Z,505.00
2023-05-10T04:10:27.700Z,507.00
2023-05-10T04:11:27.646Z,507.00
2023-05-10T04:12:27.675Z,502.00
2023-05-10T04:13:27.703Z,508.00
2023-05-10T04:14:27.626Z,507.00
2023-05-10T04:15:27.618Z,506.00
2023-05-10T04:16:27.635Z,508.00
2023-05-10T04:17:27.622Z,508.00
2023-05-10T04:18:27.599Z,506.00
2023-05-10T04:19:27.594Z,507.00
2023-05-10T04:20:27.580Z,510.00
2023-05-10T04:21:27.595Z,507.00
2023-05-10T04:22:27.573Z,516.00
2023-05-10T04:23:27.564Z,506.00
2023-05-10T04:24:27.561Z,509.00
2023-05-10T04:25:27.546Z,505.00
2023-05-10T04:26:27.536Z,504.00
2023-05-10T04:27:27.550Z,510.00
2023-05-10T04:28:27.546Z,507.00
2023-05-10T04:29:27.537Z,505.00
2023-05-10T04:30:27.515Z,503.00
2023-05-10T04:31:27.531Z,506.00
2023-05-10T04:32:27.520Z,506.00
2023-05-10T04:33:27.487Z,506.00
2023-05-10T04:34:27.485Z,508.00
2023-05-10T04:35:27.479Z,505.00
2023-05-10T04:36:27.471Z,509.00
2023-05-10T04:37:27.467Z,511.00
2023-05-10T04:38:27.458Z,507.00
2023-05-10T04:39:27.461Z,500.00
2023-05-10T04:40:27.441Z,505.00
2023-05-10T04:41:27.430Z,507.00
2023-05-10T04:42:27.460Z,507.00
2023-05-10T04:43:27.424Z,506.00
2023-05-10T04:44:27.438Z,508.00
2023-05-10T04:45:27.426Z,510.00
2023-05-10T04:46:27.425Z,504.00
2023-05-10T04:47:27.424Z,506.00
2023-05-10T04:48:27.401Z,503.00
2023-05-10T04:49:27.384Z,503.00
2023-05-10T04:50:27.375Z,510.00
2023-05-10T04:51:27.364Z,503.00
2023-05-10T04:52:27.356Z,511.00
2023-05-10T04:53:27.354Z,503.00
2023-05-10T04:54:27.345Z,510.00
2023-05-10T04:55:27.336Z,505.00
2023-05-10T04:56:27.356Z,504.00
2023-05-10T04:57:27.364Z,507.00
2023-05-10T04:58:27.373Z,504.00
2023-05-10T04:59:27.375Z,509.00
2023-05-10T05:00:27.416Z,508.00
2023-05-10T05:01:27.421Z,505.00
2023-05-10T05:02:27.449Z,510.00
2023-05-10T05:03:27.492Z,508.00
2023-05-10T05:04:27.429Z,506.00
2023-05-10T05:05:27.441Z,510.00
2023-05-10T05:06:27.468Z,505.00
2023-05-10T05:07:27.489Z,506.00
2023-05-10T05:08:27.503Z,509.00
2023-05-10T05:09:27.542Z,510.00
2023-05-10T05:10:27.500Z,515.00
2023-05-10T05:11:27.522Z,500.00
2023-05-10T05:12:27.585Z,507.00
2023-05-10T05:13:27.684Z,507.00
2023-05-10T05:14:27.560Z,504.00
2023-05-10T05:15:27.584Z,506.00
2023-05-10T05:16:27.756Z,507.00
2023-05-10T05:17:27.652Z,504.00
2023-05-10T05:18:27.606Z,507.00
2023-05-10T05:19:27.700Z,505.00
2023-05-10T05:20:27.660Z,505.00
2023-05-10T05:21:27.669Z,504.00
2023-05-10T05:22:27.657Z,511.00
2023-05-10T05:23:27.698Z,507.00
2023-05-10T05:24:27.713Z,508.00
2023-05-10T05:25:27.712Z,511.00
2023-05-10T05:26:27.724Z,520.00
2023-05-10T05:27:27.752Z,512.00
2023-05-10T05:28:27.723Z,511.00
2023-05-10T05:29:27.755Z,514.00
2023-05-10T05:30:27.781Z,518.00
2023-05-10T05:31:27.837Z,518.00
2023-05-10T05:32:27.842Z,522.00
2023-05-10T05:33:27.785Z,524.00
2023-05-10T05:34:27.799Z,522.00
2023-05-10T05:35:27.819Z,526.00
2023-05-10T05:36:27.812Z,525.00
2023-05-10T05:37:28.923Z,527.00
2023-05-10T05:38:27.834Z,528.00
2023-05-10T05:39:27.826Z,536.00
2023-05-10T05:40:27.840Z,535.00
2023-05-10T05:41:28.235Z,537.00
2023-05-10T05:42:27.834Z,535.00
2023-05-10T05:43:27.851Z,536.00
2023-05-10T05:44:28.198Z,535.00
2023-05-10T05:45:27.852Z,537.00
2023-05-10T05:46:27.900Z,538.00
2023-05-10T05:47:27.853Z,549.00
2023-05-10T05:48:27.883Z,553.00
2023-05-10T05:49:31.498Z,547.00
2023-05-10T05:50:28.205Z,547.00
2023-05-10T05:51:27.869Z,548.00
2023-05-10T05:52:27.863Z,551.00
2023-05-10T05:53:27.866Z,558.00
2023-05-10T05:54:28.205Z,566.00
2023-05-10T05:55:27.837Z,572.00
2023-05-10T05:56:27.815Z,576.00
2023-05-10T05:57:27.804Z,586.00
2023-05-10T05:58:28.214Z,586.00
2023-05-10T05:59:28.230Z,590.00
2023-05-10T06:00:27.833Z,591.00
2023-05-10T06:01:27.804Z,589.00
2023-05-10T06:02:27.839Z,605.00
2023-05-10T06:03:27.885Z,632.00
2023-05-10T06:04:27.362Z,632.00
2023-05-10T06:05:28.801Z,642.00
2023-05-10T06:06:27.763Z,651.00
2023-05-10T06:07:28.439Z,645.00
2023-05-10T06:08:27.754Z,650.00
2023-05-10T06:09:27.736Z,657.00
2023-05-10T06:10:27.810Z,676.00
2023-05-10T06:11:27.735Z,704.00
2023-05-10T06:12:28.212Z,736.00
2023-05-10T06:13:27.777Z,747.00
2023-05-10T06:14:28.250Z,763.00
2023-05-10T06:15:28.229Z,778.00
2023-05-10T06:16:27.902Z,805.00
2023-05-10T06:17:27.924Z,815.00
2023-05-10T06:18:27.947Z,862.00
2023-05-10T06:19:27.992Z,855.00
2023-05-10T06:20:28.310Z,884.00
2023-05-10T06:21:28.074Z,888.00
2023-05-10T06:22:28.133Z,918.00
2023-05-10T06:23:28.168Z,934.00
2023-05-10T06:24:28.229Z,963.00
2023-05-10T06:25:28.237Z,969.00
2023-05-10T06:26:28.281Z,996.00
2023-05-10T06:27:28.313Z,997.00
2023-05-10T06:28:28.338Z,1012.00
2023-05-10T06:29:28.772Z,1030.00
2023-05-10T06:30:28.507Z,1041.00
2023-05-10T06:31:28.450Z,1041.00
2023-05-10T06:32:28.494Z,1067.00
2023-05-10T06:33:28.476Z,1081.00
2023-05-10T06:34:28.737Z,1103.00
2023-05-10T06:35:28.536Z,1113.00
2023-05-10T06:36:28.775Z,1112.00
2023-05-10T06:37:28.579Z,1138.00
2023-05-10T06:38:28.725Z,1154.00
2023-05-10T06:39:28.633Z,1160.00
2023-05-10T06:40:28.634Z,1173.00
2023-05-10T06:41:28.666Z,1203.00
2023-05-10T06:42:28.682Z,1210.00
2023-05-10T06:43:28.736Z,1214.00
2023-05-10T06:44:28.725Z,1229.00
2023-05-10T06:45:29.238Z,1277.00
2023-05-10T06:46:28.770Z,1268.00
2023-05-10T06:47:28.819Z,1298.00
2023-05-10T06:48:28.808Z,1267.00
2023-05-10T06:49:29.241Z,1269.00
2023-05-10T06:50:29.246Z,1267.00
2023-05-10T06:51:28.853Z,1265.00
2023-05-10T06:52:28.918Z,1247.00
2023-05-10T06:53:28.931Z,1250.00
2023-05-10T06:54:29.243Z,1251.00
2023-05-10T06:55:36.390Z,1257.00
2023-05-10T06:56:28.942Z,1259.00
2023-05-10T06:57:31.672Z,1263.00
2023-05-10T06:58:29.236Z,1259.00
2023-05-10T06:59:29.978Z,1263.00
2023-05-10T07:00:36.425Z,1272.00
2023-05-10T07:01:28.940Z,1260.00
2023-05-10T07:02:29.040Z,1269.00
2023-05-10T07:03:28.892Z,1277.00
2023-05-10T07:04:29.304Z,1290.00
2023-05-10T07:05:29.133Z,1300.00
2023-05-10T07:06:33.543Z,1302.00
2023-05-10T07:07:28.881Z,1304.00
2023-05-10T07:08:28.887Z,1308.00
2023-05-10T07:09:28.856Z,1303.00
2023-05-10T07:10:29.251Z,1307.00
2023-05-10T07:11:28.839Z,1294.00
2023-05-10T07:12:28.872Z,1288.00
2023-05-10T07:13:28.903Z,1282.00
2023-05-10T07:14:29.244Z,1272.00
2023-05-10T07:15:28.816Z,1285.00
2023-05-10T07:16:29.277Z,1267.00
2023-05-10T07:17:28.942Z,1274.00
2023-05-10T07:18:28.839Z,1261.00
2023-05-10T07:19:28.804Z,1253.00
2023-05-10T07:20:28.781Z,1257.00
2023-05-10T07:21:29.336Z,1246.00
2023-05-10T07:22:28.765Z,1242.00
2023-05-10T07:23:28.757Z,1241.00
2023-05-10T07:24:28.775Z,1246.00
2023-05-10T07:25:28.748Z,1228.00
2023-05-10T07:26:28.747Z,1230.00
2023-05-10T07:27:28.752Z,1223.00
2023-05-10T07:28:28.755Z,1226.00
2023-05-10T07:29:28.748Z,1216.00
2023-05-10T07:30:28.724Z,1212.00
2023-05-10T07:31:28.777Z,1222.00
2023-05-10T07:32:29.377Z,1206.00
2023-05-10T07:33:32.037Z,1203.00
2023-05-10T07:34:28.823Z,1204.00
2023-05-10T07:35:29.276Z,1201.00
2023-05-10T07:36:28.853Z,1186.00
2023-05-10T07:37:28.808Z,1175.00
2023-05-10T07:38:28.804Z,1191.00
2023-05-10T07:39:28.832Z,1202.00
2023-05-10T07:40:29.282Z,1184.00
2023-05-10T07:41:28.804Z,1203.00
2023-05-10T07:42:28.805Z,1218.00
2023-05-10T07:43:28.806Z,1205.00
2023-05-10T07:44:29.300Z,1200.00
2023-05-10T07:45:29.951Z,1188.00
2023-05-10T07:46:28.873Z,1246.00
2023-05-10T07:47:30.081Z,1247.00
2023-05-10T07:48:28.716Z,1226.00
2023-05-10T07:49:28.760Z,1255.00
2023-05-10T07:50:28.806Z,1254.00
2023-05-10T07:51:28.819Z,1265.00
2023-05-10T07:52:29.098Z,1285.00
2023-05-10T07:53:28.863Z,1305.00
2023-05-10T07:54:29.276Z,1289.00
2023-05-10T07:55:28.929Z,1302.00
2023-05-10T07:56:28.992Z,1291.00
2023-05-10T07:57:29.016Z,1299.00
2023-05-10T07:58:30.042Z,1336.00
2023-05-10T07:59:29.277Z,1345.00
2023-05-10T08:00:29.122Z,1323.00
2023-05-10T08:01:29.283Z,1317.00
2023-05-10T08:02:29.219Z,1316.00
2023-05-10T08:03:29.294Z,1301.00
2023-05-10T08:04:29.274Z,1288.00
2023-05-10T08:05:29.293Z,1298.00
2023-05-10T08:06:29.310Z,1302.00
2023-05-10T08:07:29.326Z,1282.00
2023-05-10T08:08:29.373Z,1291.00
2023-05-10T08:09:29.406Z,1277.00
2023-05-10T08:10:29.440Z,1290.00
2023-05-10T08:11:29.495Z,1280.00
2023-05-10T08:12:29.567Z,1283.00
2023-05-10T08:13:29.564Z,1288.00
2023-05-10T08:14:29.604Z,1289.00
2023-05-10T08:15:29.652Z,1286.00
2023-05-10T08:16:29.930Z,1279.00
2023-05-10T08:17:29.783Z,1262.00
2023-05-10T08:18:29.820Z,1267.00
2023-05-10T08:19:29.822Z,1257.00
2023-05-10T08:20:30.269Z,1264.00
2023-05-10T08:21:29.928Z,1265.00
2023-05-10T08:22:29.957Z,1259.00
2023-05-10T08:23:30.004Z,1259.00
2023-05-10T08:24:30.053Z,1250.00
2023-05-10T08:25:30.276Z,1242.00
2023-05-10T08:26:30.162Z,1244.00
2023-05-10T08:27:30.205Z,1242.00
2023-05-10T08:28:30.283Z,1238.00
2023-05-10T08:29:32.818Z,1233.00
2023-05-10T08:30:30.770Z,1234.00
2023-05-10T08:31:30.332Z,1235.00
2023-05-10T08:32:30.324Z,1234.00
2023-05-10T08:33:31.273Z,1236.00
2023-05-10T08:34:30.273Z,1229.00
2023-05-10T08:35:30.276Z,1218.00
2023-05-10T08:36:30.260Z,1201.00
2023-05-10T08:37:30.236Z,1214.00
2023-05-10T08:38:30.255Z,1195.00
2023-05-10T08:39:30.978Z,1218.00
2023-05-10T08:40:33.482Z,1204.00
2023-05-10T08:41:30.309Z,1205.00
2023-05-10T08:42:31.203Z,1206.00
2023-05-10T08:43:30.277Z,1206.00
2023-05-10T08:45:30.605Z,1205.00
2023-05-10T08:46:31.229Z,1205.00
2023-05-10T08:47:30.229Z,1204.00
2023-05-10T08:48:30.196Z,1189.00
2023-05-10T08:49:30.154Z,1185.00
2023-05-10T08:50:30.287Z,1180.00
2023-05-10T08:51:30.137Z,1168.00
2023-05-10T08:52:30.132Z,1179.00
2023-05-10T08:53:30.117Z,1171.00
2023-05-10T08:54:30.435Z,1161.00
2023-05-10T08:55:30.285Z,1158.00
2023-05-10T08:56:30.250Z,1158.00
2023-05-10T08:57:30.306Z,1153.00
2023-05-10T08:58:30.793Z,1164.00
2023-05-10T08:59:30.425Z,1148.00
2023-05-10T09:00:30.472Z,1131.00
2023-05-10T09:01:30.577Z,1135.00
2023-05-10T09:02:30.593Z,1134.00
2023-05-10T09:03:30.628Z,1148.00
2023-05-10T09:04:30.802Z,1141.00
2023-05-10T09:05:30.781Z,1133.00
2023-05-10T09:06:30.791Z,1124.00
2023-05-10T09:07:30.859Z,1127.00
2023-05-10T09:08:30.899Z,1129.00
2023-05-10T09:09:31.311Z,1121.00
2023-05-10T09:10:31.007Z,1119.00
2023-05-10T09:11:34.273Z,1114.00
2023-05-10T09:12:31.062Z,1115.00
2023-05-10T09:13:31.047Z,1116.00
2023-05-10T09:14:31.031Z,1118.00
2023-05-10T09:15:31.300Z,1111.00
2023-05-10T09:16:31.033Z,1115.00
2023-05-10T09:17:31.093Z,1104.00
2023-05-10T09:18:31.011Z,1114.00
2023-05-10T09:19:30.999Z,1109.00
2023-05-10T09:20:31.301Z,1106.00
2023-05-10T09:21:30.993Z,1101.00
2023-05-10T09:22:31.046Z,1107.00
2023-05-10T09:23:30.984Z,1099.00
2023-05-10T09:24:30.964Z,1091.00
2023-05-10T09:25:31.305Z,1097.00
2023-05-10T09:26:30.955Z,1088.00
2023-05-10T09:27:30.972Z,1087.00
2023-05-10T09:28:30.945Z,1096.00
2023-05-10T09:29:31.300Z,1136.00
2023-05-10T09:30:30.928Z,1141.00
2023-05-10T09:31:30.966Z,1005.00
2023-05-10T09:32:30.914Z,845.00
2023-05-10T09:33:46.578Z,815.00
2023-05-10T09:34:31.306Z,818.00
2023-05-10T09:35:31.300Z,826.00
2023-05-10T09:36:30.879Z,826.00
2023-05-10T09:37:30.879Z,866.00
2023-05-10T09:38:31.310Z,922.00
2023-05-10T09:39:30.863Z,880.00
2023-05-10T09:40:30.850Z,819.00
2023-05-10T09:41:30.847Z,804.00
2023-05-10T09:42:30.855Z,765.00
2023-05-10T09:43:31.340Z,811.00
2023-05-10T09:44:30.824Z,952.00
2023-05-10T09:45:31.308Z,1063.00
2023-05-10T09:46:30.850Z,1167.00
2023-05-10T09:47:30.820Z,1217.00
2023-05-10T09:48:30.794Z,1284.00
2023-05-10T09:49:30.828Z,1322.00
2023-05-10T09:50:30.784Z,1370.00
2023-05-10T09:51:30.787Z,1405.00
2023-05-10T09:52:30.768Z,1409.00
2023-05-10T09:53:30.814Z,1440.00
2023-05-10T09:54:30.788Z,1450.00
2023-05-10T09:55:30.752Z,1474.00
2023-05-10T09:56:30.822Z,1474.00
2023-05-10T09:57:31.869Z,1501.00
2023-05-10T09:58:46.345Z,1534.00
2023-05-10T09:59:30.714Z,1537.00
2023-05-10T10:00:30.820Z,1544.00
2023-05-10T10:01:30.747Z,1562.00
2023-05-10T10:02:30.760Z,1594.00
2023-05-10T10:03:30.687Z,1642.00
2023-05-10T10:04:30.742Z,1662.00
2023-05-10T10:05:30.860Z,1671.00
2023-05-10T10:06:30.881Z,1705.00
2023-05-10T10:07:30.687Z,1719.00
2023-05-10T10:08:30.682Z,1749.00
2023-05-10T10:09:30.658Z,1752.00
2023-05-10T10:10:30.824Z,1775.00
2023-05-10T10:11:30.632Z,1810.00
2023-05-10T10:12:30.640Z,1823.00
2023-05-10T10:13:30.676Z,1837.00
2023-05-10T10:14:30.613Z,1863.00
2023-05-10T10:15:30.829Z,1895.00
2023-05-10T10:16:30.633Z,1917.00
2023-05-10T10:17:30.669Z,1936.00
2023-05-10T10:18:30.880Z,1967.00
2023-05-10T10:19:30.651Z,1981.00
2023-05-10T10:20:30.852Z,1995.00
2023-05-10T10:21:30.690Z,2017.00
2023-05-10T10:22:30.684Z,2033.00
2023-05-10T10:23:30.669Z,2049.00
2023-05-10T10:24:30.714Z,2069.00
2023-05-10T10:25:30.732Z,2078.00
2023-05-10T10:26:30.865Z,2075.00
2023-05-10T10:27:30.697Z,2094.00
2023-05-10T10:28:30.681Z,2118.00
2023-05-10T10:29:30.662Z,2124.00
2023-05-10T10:30:30.667Z,2105.00
2023-05-10T10:31:30.859Z,2084.00
2023-05-10T10:32:30.727Z,2069.00
2023-05-10T10:33:30.716Z,2075.00
2023-05-10T10:34:30.667Z,2068.00
2023-05-10T10:35:30.659Z,2064.00
2023-05-10T10:36:30.832Z,2067.00
2023-05-10T10:37:30.665Z,2072.00
2023-05-10T10:38:30.638Z,2080.00
2023-05-10T10:39:30.836Z,2074.00
2023-05-10T10:40:32.056Z,2097.00
2023-05-10T10:41:30.839Z,2098.00
2023-05-10T10:42:30.684Z,2102.00
2023-05-10T10:43:30.631Z,2109.00
2023-05-10T10:44:30.604Z,2124.00
2023-05-10T10:45:30.594Z,2143.00
2023-05-10T10:46:30.629Z,2148.00
2023-05-10T10:47:30.665Z,2172.00
2023-05-10T10:48:30.579Z,2149.00
2023-05-10T10:49:30.566Z,2148.00
2023-05-10T10:50:30.584Z,2159.00
2023-05-10T10:51:30.593Z,2153.00
2023-05-10T10:52:30.552Z,2164.00
2023-05-10T10:53:30.654Z,2172.00
2023-05-10T10:54:30.576Z,2171.00
2023-05-10T10:55:30.647Z,2157.00
2023-05-10T10:56:30.666Z,2175.00
2023-05-10T10:57:30.889Z,2177.00
2023-05-10T10:58:30.765Z,2182.00
2023-05-10T10:59:30.823Z,2189.00
2023-05-10T11:00:30.877Z,2207.00
2023-05-10T11:01:31.051Z,2219.00
2023-05-10T11:02:31.404Z,2213.00
2023-05-10T11:03:31.502Z,2227.00
2023-05-10T11:04:31.151Z,2254.00
2023-05-10T11:05:31.180Z,2264.00
2023-05-10T11:06:31.266Z,2267.00
2023-05-10T11:07:31.297Z,2263.00
2023-05-10T11:08:31.361Z,2246.00
2023-05-10T11:09:31.917Z,2236.00
2023-05-10T11:10:31.481Z,2234.00
2023-05-10T11:11:31.553Z,2241.00
2023-05-10T11:12:31.613Z,2227.00
2023-05-10T11:13:31.652Z,2237.00
2023-05-10T11:14:31.711Z,2223.00
2023-05-10T11:15:31.739Z,2219.00
2023-05-10T11:16:31.886Z,2212.00
2023-05-10T11:17:31.813Z,2212.00
2023-05-10T11:18:31.882Z,2216.00
2023-05-10T11:19:31.798Z,2206.00
2023-05-10T11:20:31.844Z,2203.00
2023-05-10T11:21:31.817Z,2204.00
2023-05-10T11:22:31.828Z,2202.00
2023-05-10T11:23:31.856Z,2200.00
2023-05-10T11:24:31.811Z,2184.00
2023-05-10T11:25:31.839Z,2185.00
2023-05-10T11:26:31.797Z,2183.00
2023-05-10T11:27:31.791Z,2168.00
2023-05-10T11:28:31.784Z,2166.00
2023-05-10T11:29:31.787Z,2175.00
2023-05-10T11:30:31.823Z,2162.00
2023-05-10T11:31:31.808Z,2151.00
2023-05-10T11:32:31.852Z,2142.00
2023-05-10T11:33:31.796Z,2140.00
2023-05-10T11:34:31.775Z,2143.00
2023-05-10T11:35:31.790Z,2132.00
2023-05-10T11:36:31.779Z,2126.00
2023-05-10T11:37:31.776Z,2129.00
2023-05-10T11:38:31.784Z,2103.00
2023-05-10T11:39:31.780Z,2104.00
2023-05-10T11:40:31.791Z,2102.00
2023-05-10T11:41:31.836Z,2096.00
2023-05-10T11:42:31.810Z,2089.00
2023-05-10T11:43:31.823Z,2082.00
2023-05-10T11:44:31.828Z,2079.00
2023-05-10T11:45:31.848Z,2077.00
2023-05-10T11:46:31.890Z,2071.00
2023-05-10T11:47:31.844Z,2060.00
2023-05-10T11:48:31.826Z,2058.00
2023-05-10T11:49:31.824Z,2060.00
2023-05-10T11:50:31.830Z,2047.00
2023-05-10T11:51:31.836Z,2055.00
2023-05-10T11:52:31.854Z,2053.00
2023-05-10T11:53:31.871Z,2035.00
2023-05-10T11:54:31.862Z,2039.00
2023-05-10T11:55:31.876Z,2018.00
2023-05-10T11:56:31.911Z,2013.00
2023-05-10T11:57:32.043Z,2017.00
2023-05-10T11:58:32.367Z,2013.00
2023-05-10T11:59:31.946Z,2029.00
2023-05-10T12:00:31.933Z,2022.00
2023-05-10T12:01:32.364Z,2036.00
2023-05-10T12:02:32.028Z,2052.00
2023-05-10T12:03:32.235Z,2070.00
2023-05-10T12:04:32.038Z,2059.00
2023-05-10T12:05:32.013Z,2055.00
2023-05-10T12:06:32.216Z,2067.00
2023-05-10T12:07:32.065Z,2043.00
2023-05-10T12:08:32.088Z,2033.00
2023-05-10T12:09:43.307Z,2026.00
2023-05-10T12:10:32.083Z,2027.00
2023-05-10T12:11:32.077Z,2032.00
2023-05-10T12:12:32.071Z,2027.00
2023-05-10T12:13:32.080Z,2024.00
2023-05-10T12:14:32.080Z,2023.00
2023-05-10T12:15:32.041Z,2004.00
2023-05-10T12:16:32.109Z,2010.00
2023-05-10T12:17:32.414Z,1993.00
2023-05-10T12:18:33.027Z,1984.00